Hereford, TX

11:12 PM CDT on June 22, 2017 (GMT -0500)
Hereford Municipal

Weather History for KHRX - December, 2011

Change the Weather History Date:

Sunday, December 11, 2011

  Actual Average (KCVN) Record (KCVN)
Temperature  
Mean Temperature 34 °F -  
Max Temperature 39 °F 51 °F 78 °F (1925)
Min Temperature 30 °F 24 °F 5 °F (1917)
Degree Days  
Heating Degree Days 30    
Moisture  
Dew Point 33 °F    
Average Humidity 94    
Maximum Humidity 100    
Minimum Humidity 87    
Precipitation  
Precipitation 0.00 in - - ()
Sea Level Pressure  
Sea Level Pressure 30.17 in    
Wind  
Wind Speed 13 mph (SSW)    
Max Wind Speed 21 mph    
Max Gust Speed 28 mph    
Visibility 6 miles    
Events Fog    
Averages and records for this station are not official NWS values.
T = Trace of Precipitation, MM = Missing Value Source: NWS Daily Summary

Daily Weather History Graph

Daily Weather History Graph

Search for Another Location

Airport or City:

Trip Planner

Search our weather history database for the weather conditions in past years. The results will help you decide how hot, cold, wet, or windy it might be!

Date:

Astronomy

Dec. 11, 2011 Rise Set
Actual Time 7:46 AM CST 5:38 PM CST
Civil Twilight 7:18 AM CST 6:06 PM CST
Nautical Twilight 6:47 AM CST 6:37 PM CST
Astronomical Twilight 6:16 AM CST 7:08 PM CST
Moon 6:50 PM CST (12/11) 8:36 AM CST (12/11)
Length of Visible Light 10h 47m
Length of Day
9h 51m
Full, 99% of the Moon is Illuminated
Dec 11
Full
Dec 17
Last Quarter
Dec 24
New
Jan 1
First Quarter
Jan 9
Full

Hourly Weather History & Observations

Time (CST) Temp. Windchill Dew Point Humidity Pressure Visibility Wind Dir Wind Speed Gust Speed Precip Events Conditions
12:15 AM 30.2 °F 21.3 °F 28.4 °F 93% 30.32 in 1.5 mi SW 10.4 mph - N/A   Overcast
12:35 AM 30.2 °F 21.3 °F 30.2 °F 100% 30.31 in 0.5 mi SW 10.4 mph - N/A Fog Light Freezing Fog
12:55 AM 32.0 °F 23.0 °F 30.2 °F 93% 30.31 in 3.0 mi SSW 11.5 mph - N/A   Overcast
1:15 AM 32.0 °F 24.8 °F 30.2 °F 93% 30.30 in 4.0 mi SSW 8.1 mph - N/A   Overcast
1:35 AM 32.0 °F 26.4 °F 30.2 °F 93% 30.29 in 3.0 mi SSW 5.8 mph - N/A   Overcast
1:55 AM 32.0 °F 24.2 °F 32.0 °F 100% 30.28 in 3.0 mi SSW 9.2 mph - N/A   Overcast
2:15 AM 32.0 °F 23.6 °F 32.0 °F 100% 30.28 in 4.0 mi SSW 10.4 mph - N/A   Overcast
2:35 AM 32.0 °F 23.6 °F 32.0 °F 100% 30.28 in 5.0 mi SSW 10.4 mph - N/A   Overcast
3:15 AM 32.0 °F 23.0 °F 32.0 °F 100% 30.26 in 2.5 mi SSW 11.5 mph - N/A   Overcast
3:35 AM 32.0 °F 24.2 °F 32.0 °F 100% 30.26 in 3.0 mi SSW 9.2 mph - N/A   Overcast
3:55 AM 32.0 °F 23.0 °F 32.0 °F 100% 30.25 in 4.0 mi SSW 11.5 mph - N/A   Overcast
4:15 AM 32.0 °F 23.0 °F 32.0 °F 100% 30.24 in 3.0 mi SSW 11.5 mph - N/A   Overcast
4:35 AM 32.0 °F 22.1 °F 32.0 °F 100% 30.24 in 2.5 mi SSW 13.8 mph 18.4 mph N/A   Overcast
4:55 AM 32.0 °F 22.1 °F 32.0 °F 100% 30.23 in 2.0 mi SSW 13.8 mph 17.3 mph N/A   Overcast
5:15 AM 32.0 °F 22.5 °F 32.0 °F 100% 30.22 in 2.5 mi SSW 12.7 mph - N/A   Overcast
5:35 AM 32.0 °F 22.5 °F 32.0 °F 100% 30.22 in 2.5 mi SSW 12.7 mph - N/A   Overcast
5:55 AM 32.0 °F 23.6 °F 32.0 °F 100% 30.21 in 2.5 mi SSW 10.4 mph - N/A   Overcast
6:15 AM 32.0 °F 22.5 °F 32.0 °F 100% 30.21 in 3.0 mi SSW 12.7 mph - N/A   Overcast
6:35 AM 32.0 °F 23.6 °F 32.0 °F 100% 30.21 in 2.5 mi SSW 10.4 mph - N/A   Overcast
6:55 AM 32.0 °F 22.5 °F 32.0 °F 100% 30.21 in 2.5 mi SSW 12.7 mph - N/A   Overcast
7:15 AM 32.0 °F 23.0 °F 32.0 °F 100% 30.21 in 2.5 mi SSW 11.5 mph - N/A   Overcast
7:35 AM 32.0 °F 23.0 °F 32.0 °F 100% 30.20 in 2.5 mi SSW 11.5 mph - N/A   Overcast
7:55 AM 32.0 °F 22.5 °F 32.0 °F 100% 30.20 in 1.5 mi SSW 12.7 mph - N/A   Overcast
8:15 AM 32.0 °F 22.1 °F 32.0 °F 100% 30.20 in 1.2 mi SSW 13.8 mph - N/A   Overcast
8:35 AM 32.0 °F 22.5 °F 32.0 °F 100% 30.20 in 1.2 mi SSW 12.7 mph - N/A   Overcast
8:55 AM 32.0 °F 21.6 °F 32.0 °F 100% 30.20 in 1.5 mi SSW 15.0 mph - N/A   Overcast
9:15 AM 33.8 °F 24.3 °F 32.0 °F 93% 30.20 in 1.5 mi SSW 13.8 mph 19.6 mph N/A   Overcast
9:35 AM 33.8 °F 23.5 °F 32.0 °F 93% 30.21 in 2.0 mi SSW 16.1 mph - N/A   Overcast
9:55 AM 33.8 °F 23.9 °F 32.0 °F 93% 30.21 in 2.5 mi SSW 15.0 mph 21.9 mph N/A   Overcast
10:15 AM 33.8 °F 23.2 °F 32.0 °F 93% 30.21 in 7.0 mi SSW 17.3 mph 20.7 mph N/A   Overcast
10:35 AM 33.8 °F 23.5 °F 32.0 °F 93% 30.20 in 4.0 mi SSW 16.1 mph 19.6 mph N/A   Overcast
11:15 AM 33.8 °F 23.5 °F 32.0 °F 93% 30.19 in 10.0 mi SSW 16.1 mph 21.9 mph N/A   Overcast
11:35 AM 33.8 °F 23.9 °F 32.0 °F 93% 30.18 in 7.0 mi SSW 15.0 mph 20.7 mph N/A   Overcast
11:55 AM 35.6 °F 26.6 °F 33.8 °F 93% 30.17 in 7.0 mi SSW 13.8 mph 20.7 mph N/A   Overcast
12:15 PM 35.6 °F 25.5 °F 33.8 °F 93% 30.16 in 7.0 mi SSW 17.3 mph - N/A   Overcast
12:35 PM 35.6 °F 25.2 °F 33.8 °F 93% 30.15 in 10.0 mi SSW 18.4 mph - N/A   Overcast
12:55 PM 35.6 °F 26.2 °F 33.8 °F 93% 30.13 in 7.0 mi SSW 15.0 mph 21.9 mph N/A   Overcast
1:15 PM 35.6 °F 27.1 °F 33.8 °F 93% 30.12 in 5.0 mi SSW 12.7 mph - N/A   Overcast
1:35 PM 37.4 °F 27.5 °F 33.8 °F 87% 30.11 in 10.0 mi SW 18.4 mph - N/A   Overcast
1:55 PM 37.4 °F 27.2 °F 33.8 °F 87% 30.10 in 10.0 mi SW 19.6 mph 24.2 mph N/A   Overcast
2:15 PM 37.4 °F 27.8 °F 35.6 °F 93% 30.09 in 10.0 mi SW 17.3 mph - N/A   Overcast
2:35 PM 37.4 °F 27.8 °F 35.6 °F 93% 30.09 in 10.0 mi SSW 17.3 mph 25.3 mph N/A   Overcast
2:55 PM 37.4 °F 27.2 °F 35.6 °F 93% 30.08 in 10.0 mi SSW 19.6 mph - N/A   Overcast
3:15 PM 37.4 °F 27.5 °F 35.6 °F 93% 30.08 in 10.0 mi SSW 18.4 mph - N/A   Overcast
3:35 PM 37.4 °F 27.5 °F 35.6 °F 93% 30.07 in 10.0 mi SSW 18.4 mph 25.3 mph N/A   Overcast
3:55 PM 39.2 °F 29.3 °F 35.6 °F 87% 30.07 in 10.0 mi SSW 20.7 mph 27.6 mph N/A   Overcast
4:15 PM 39.2 °F 30.2 °F 35.6 °F 87% 30.07 in 10.0 mi SSW 17.3 mph 23.0 mph N/A   Overcast
4:35 PM 39.2 °F 30.2 °F 35.6 °F 87% 30.06 in 10.0 mi SSW 17.3 mph 23.0 mph N/A   Overcast
4:55 PM 39.2 °F 30.2 °F 35.6 °F 87% 30.06 in 10.0 mi SSW 17.3 mph 23.0 mph N/A   Overcast
5:15 PM 39.2 °F 29.8 °F 35.6 °F 87% 30.06 in 10.0 mi SW 18.4 mph - N/A   Overcast
5:35 PM 39.2 °F 31.2 °F 35.6 °F 87% 30.05 in 10.0 mi SSW 13.8 mph - N/A   Overcast
5:55 PM 39.2 °F 31.2 °F 35.6 °F 87% 30.05 in 10.0 mi SSW 13.8 mph 17.3 mph N/A   Overcast
6:15 PM 39.2 °F 30.5 °F 35.6 °F 87% 30.04 in 10.0 mi SSW 16.1 mph 20.7 mph N/A   Overcast
6:35 PM 39.2 °F 30.8 °F 35.6 °F 87% 30.05 in 10.0 mi SSW 15.0 mph 21.9 mph N/A   Overcast
6:55 PM 39.2 °F 30.8 °F 35.6 °F 87% 30.05 in 7.0 mi SSW 15.0 mph 24.2 mph N/A   Overcast
7:15 PM 39.2 °F 31.6 °F 35.6 °F 87% 30.05 in 7.0 mi SSW 12.7 mph - N/A   Overcast
7:35 PM 39.2 °F 33.0 °F 35.6 °F 87% 30.05 in 7.0 mi SSW 9.2 mph 16.1 mph N/A   Overcast
7:55 PM 39.2 °F 32.5 °F 37.4 °F 93% 30.06 in 5.0 mi SSW 10.4 mph 17.3 mph N/A   Overcast
8:15 PM 39.2 °F 30.8 °F 37.4 °F 93% 30.06 in 5.0 mi SSW 15.0 mph 19.6 mph N/A   Overcast
8:35 PM 39.2 °F 30.8 °F 37.4 °F 93% 30.06 in 5.0 mi SSW 15.0 mph - N/A   Overcast
8:55 PM 39.2 °F 30.5 °F 37.4 °F 93% 30.06 in 5.0 mi SSW 16.1 mph 20.7 mph N/A   Overcast
9:15 PM 39.2 °F 30.2 °F 37.4 °F 93% 30.06 in 4.0 mi SSW 17.3 mph 21.9 mph N/A   Overcast
9:35 PM 39.2 °F 30.8 °F 37.4 °F 93% 30.07 in 3.0 mi SSW 15.0 mph - N/A   Overcast
9:55 PM 39.2 °F 31.6 °F 37.4 °F 93% 30.08 in 7.0 mi SSW 12.7 mph - N/A   Overcast
10:15 PM 39.2 °F 32.0 °F 37.4 °F 93% 30.07 in 4.0 mi SSW 11.5 mph 17.3 mph N/A   Overcast
10:35 PM 39.2 °F 31.6 °F 37.4 °F 93% 30.08 in 5.0 mi SSW 12.7 mph - N/A   Overcast
11:15 PM 39.2 °F 30.2 °F 37.4 °F 93% 30.08 in 10.0 mi SSW 17.3 mph 20.7 mph N/A   Overcast
11:35 PM 39.2 °F 30.2 °F 35.6 °F 87% 30.08 in 10.0 mi SW 17.3 mph - N/A   Overcast
11:55 PM 39.2 °F 31.6 °F 35.6 °F 87% 30.07 in 10.0 mi SW 12.7 mph - N/A   Overcast